Time;durP1;ratioP1;P1;durP2;ratioP2;P2;SDS_P1;SDS_P2;PMS_P1;PMS_P2;Temp;Humidity;BMP_temperature;BMP_pressure;BME280_temperature;BME280_humidity;BME280_pressure;Samples;Min_cycle;Max_cycle;Signal;HPM_P1;HPM_P2
2023/07/05 00:02:21;;;;;;;5.20;2.97;;;21.20;94.40;;;;;;5047047;28;20516;-63
2023/07/05 00:04:46;;;;;;;4.83;3.20;;;21.20;94.50;;;;;;5051595;28;20032;-63
2023/07/05 00:07:12;;;;;;;7.07;2.63;;;21.10;95.50;;;;;;5057027;28;20488;-66
2023/07/05 00:09:37;;;;;;;6.10;3.00;;;21.10;94.90;;;;;;5053904;28;20497;-64
2023/07/05 00:12:03;;;;;;;7.80;2.50;;;21.20;95.00;;;;;;5051377;28;20050;-66
2023/07/05 00:14:29;;;;;;;7.30;3.25;;;21.30;94.70;;;;;;5051594;28;20381;-66
2023/07/05 00:16:55;;;;;;;5.10;2.90;;;21.30;94.40;;;;;;5051543;28;20082;-66
2023/07/05 00:19:21;;;;;;;10.52;3.58;;;21.20;95.20;;;;;;5050717;28;20021;-65
2023/07/05 00:21:46;;;;;;;5.50;2.90;;;21.10;94.00;;;;;;5053013;28;20036;-66
2023/07/05 00:24:12;;;;;;;6.20;3.10;;;21.00;94.10;;;;;;5052365;28;20052;-66
2023/07/05 00:26:37;;;;;;;5.87;2.90;;;21.00;94.20;;;;;;5082976;28;20112;-66
2023/07/05 00:29:03;;;;;;;5.70;3.00;;;20.90;93.80;;;;;;5066642;28;20127;-65
2023/07/05 00:31:29;;;;;;;5.20;3.07;;;21.00;94.40;;;;;;5051350;28;20016;-66
2023/07/05 00:33:54;;;;;;;4.23;2.70;;;20.90;94.80;;;;;;5051413;28;20028;-63
2023/07/05 00:36:20;;;;;;;9.53;3.10;;;20.70;97.30;;;;;;5046200;28;20393;-64
2023/07/05 00:38:45;;;;;;;6.50;3.27;;;20.60;95.70;;;;;;5053013;28;20074;-65
2023/07/05 00:41:11;;;;;;;6.40;2.90;;;20.50;95.80;;;;;;5063423;28;20021;-63
2023/07/05 00:43:37;;;;;;;6.17;3.40;;;20.60;95.70;;;;;;5052297;28;20040;-66
2023/07/05 00:46:24;;;;;;;10.20;3.60;;;20.70;96.50;;;;;;5051446;28;20064;-65
2023/07/05 00:48:59;;;;;;;7.85;3.55;;;20.60;96.20;;;;;;5050907;28;20055;-66
2023/07/05 00:51:37;;;;;;;8.65;3.40;;;20.60;95.50;;;;;;5050320;28;20040;-66
2023/07/05 00:54:05;;;;;;;4.80;3.47;;;20.60;95.30;;;;;;5047331;28;20021;-65
2023/07/05 00:56:43;;;;;;;9.20;3.17;;;20.50;96.70;;;;;;5057039;28;20116;-66
2023/07/05 00:59:12;;;;;;;7.07;3.17;;;20.50;96.00;;;;;;5048155;28;20025;-67
2023/07/05 01:01:38;;;;;;;5.82;3.30;;;20.40;96.10;;;;;;5051289;28;20062;-66
2023/07/05 01:04:04;;;;;;;;;;;20.30;96.50;;;;;;5046722;28;20043;-66
2023/07/05 01:06:30;;;;;;;4.88;3.13;;;20.20;98.20;;;;;;5050264;28;19908;-66
2023/07/05 01:08:57;;;;;;;10.50;3.00;;;20.00;97.80;;;;;;5050457;28;20044;-66
2023/07/05 01:11:22;;;;;;;9.00;3.33;;;20.10;98.70;;;;;;5047817;28;20019;-67
2023/07/05 01:14:00;;;;;;;13.57;3.47;;;20.00;98.00;;;;;;5050762;28;20029;-64
2023/07/05 01:17:07;;;;;;;8.98;3.20;;;19.90;97.90;;;;;;5042340;28;20053;-66
2023/07/05 01:20:09;;;;;;;6.07;3.88;;;19.90;98.50;;;;;;5036858;28;20549;-66
2023/07/05 01:22:56;;;;;;;4.60;2.90;;;20.00;98.90;;;;;;5047727;28;20543;-67
2023/07/05 01:25:41;;;;;;;5.13;3.20;;;20.00;98.70;;;;;;5045334;28;20100;-66
2023/07/05 01:28:25;;;;;;;11.25;3.13;;;19.80;98.90;;;;;;5057480;28;20400;-67
2023/07/05 01:31:05;;;;;;;6.60;3.28;;;19.80;99.80;;;;;;5049604;28;20098;-66
2023/07/05 01:33:37;;;;;;;9.02;3.40;;;19.60;99.90;;;;;;5046651;28;20070;-66
2023/07/05 01:36:04;;;;;;;6.38;3.65;;;19.60;99.90;;;;;;5048270;28;20052;-65
2023/07/05 01:38:29;;;;;;;;;;;19.50;99.90;;;;;;5050155;28;20570;-66
2023/07/05 01:41:04;;;;;;;5.38;3.20;;;19.60;99.70;;;;;;5049811;28;19909;-66
2023/07/05 01:43:33;;;;;;;8.50;3.90;;;19.70;99.90;;;;;;5048848;28;20025;-66
2023/07/05 01:46:04;;;;;;;13.48;4.00;;;19.70;99.90;;;;;;5049833;28;20029;-65
2023/07/05 01:48:54;;;;;;;12.60;3.25;;;19.70;99.90;;;;;;5049033;28;20043;-66
2023/07/05 01:51:34;;;;;;;5.05;3.25;;;19.50;99.90;;;;;;5049130;28;20068;-66
2023/07/05 01:54:23;;;;;;;9.98;3.72;;;19.60;99.90;;;;;;5049691;28;20033;-66
2023/07/05 01:57:07;;;;;;;6.50;3.00;;;19.50;99.90;;;;;;5050102;28;20028;-67
2023/07/05 01:59:50;;;;;;;6.13;4.03;;;19.20;99.90;;;;;;5049759;28;20043;-67
2023/07/05 02:02:18;;;;;;;5.47;3.50;;;19.20;99.90;;;;;;5036735;28;20114;-66
2023/07/05 02:04:45;;;;;;;7.18;3.45;;;19.10;99.90;;;;;;5058999;28;20461;-66
2023/07/05 02:07:11;;;;;;;6.85;3.40;;;19.10;99.90;;;;;;5049126;28;20456;-64
2023/07/05 02:09:38;;;;;;;9.52;3.58;;;19.10;99.90;;;;;;5049679;28;20501;-66
2023/07/05 02:12:05;;;;;;;4.07;3.17;;;19.10;99.90;;;;;;5047614;28;20041;-64
2023/07/05 02:14:31;;;;;;;7.10;3.88;;;18.90;99.90;;;;;;5048234;28;20417;-64
2023/07/05 02:16:57;;;;;;;9.37;3.60;;;18.80;99.90;;;;;;5048512;28;20017;-66
2023/07/05 02:19:22;;;;;;;5.83;3.60;;;18.80;99.90;;;;;;5048291;28;20095;-66
2023/07/05 02:21:48;;;;;;;7.10;3.27;;;18.80;99.90;;;;;;5048935;28;20269;-64
2023/07/05 02:24:13;;;;;;;8.00;4.17;;;18.90;99.90;;;;;;5049041;28;20065;-66
2023/07/05 02:26:39;;;;;;;6.97;3.70;;;18.90;99.90;;;;;;5048861;28;20052;-66
2023/07/05 02:29:05;;;;;;;5.60;3.63;;;19.00;99.90;;;;;;5048224;28;20063;-64
2023/07/05 02:31:30;;;;;;;9.07;4.03;;;19.10;99.90;;;;;;5049033;28;20013;-65
2023/07/05 02:33:56;;;;;;;7.13;4.30;;;19.00;99.90;;;;;;5049031;28;20025;-65
2023/07/05 02:36:21;;;;;;;5.17;3.40;;;18.90;99.90;;;;;;5048418;28;20028;-66
2023/07/05 02:38:47;;;;;;;11.63;4.50;;;19.00;99.90;;;;;;5048865;28;20067;-65
2023/07/05 02:41:13;;;;;;;5.27;3.87;;;19.00;99.90;;;;;;5052095;28;20104;-65
2023/07/05 02:43:38;;;;;;;19.93;4.37;;;18.90;99.90;;;;;;5050112;28;20033;-64
2023/07/05 02:46:07;;;;;;;5.10;3.40;;;18.90;99.90;;;;;;5064046;28;20120;-62
2023/07/05 02:48:33;;;;;;;6.35;4.00;;;18.80;99.90;;;;;;5047482;28;20059;-63
2023/07/05 02:50:59;;;;;;;6.88;4.10;;;19.00;99.90;;;;;;5059059;28;20452;-63
2023/07/05 02:53:24;;;;;;;14.15;4.60;;;18.90;99.90;;;;;;5048744;28;20045;-66
2023/07/05 02:55:51;;;;;;;6.87;4.30;;;18.90;99.90;;;;;;5044309;28;20043;-63
2023/07/05 02:58:16;;;;;;;5.38;3.92;;;18.80;99.90;;;;;;5047396;28;20024;-63
2023/07/05 03:00:43;;;;;;;7.30;4.20;;;18.80;99.90;;;;;;5049249;28;20032;-64
2023/07/05 03:03:08;;;;;;;;;;;18.80;99.90;;;;;;5048904;28;20090;-64
2023/07/05 03:05:34;;;;;;;5.00;3.47;;;18.80;99.90;;;;;;5049377;28;19912;-65
2023/07/05 03:08:00;;;;;;;5.73;4.27;;;18.80;99.90;;;;;;5042344;28;20037;-64
2023/07/05 03:10:25;;;;;;;8.97;4.10;;;18.70;99.90;;;;;;5048699;28;20393;-66
2023/07/05 03:12:51;;;;;;;5.83;3.83;;;18.50;99.90;;;;;;5049532;28;20059;-65
2023/07/05 03:15:16;;;;;;;3.83;3.20;;;18.50;99.90;;;;;;5045856;28;20037;-66
2023/07/05 03:17:43;;;;;;;4.73;3.97;;;18.50;99.90;;;;;;5047171;28;20033;-66
2023/07/05 03:20:09;;;;;;;6.75;4.20;;;18.50;99.90;;;;;;5048822;28;20044;-67
2023/07/05 03:22:35;;;;;;;5.68;3.67;;;18.60;99.90;;;;;;5050942;28;20029;-64
2023/07/05 03:25:02;;;;;;;11.25;3.95;;;18.50;99.90;;;;;;5047727;28;20393;-64
2023/07/05 03:27:31;;;;;;;5.95;3.70;;;18.60;99.90;;;;;;5049289;28;20043;-66
2023/07/05 03:29:57;;;;;;;7.55;4.10;;;18.60;99.90;;;;;;5048198;28;20033;-62
2023/07/05 03:32:22;;;;;;;6.35;3.33;;;18.70;99.90;;;;;;5051556;28;20467;-65
2023/07/05 03:34:50;;;;;;;8.70;4.33;;;18.60;99.90;;;;;;5048310;28;20033;-67
2023/07/05 03:37:15;;;;;;;7.18;3.90;;;18.60;99.90;;;;;;5078396;28;20459;-66
2023/07/05 03:39:41;;;;;;;14.37;4.20;;;18.60;99.90;;;;;;5052604;28;20029;-64
2023/07/05 03:42:07;;;;;;;8.47;4.07;;;18.60;99.90;;;;;;5050380;28;20040;-67
2023/07/05 03:44:33;;;;;;;6.80;4.32;;;18.50;99.90;;;;;;5046856;28;20554;-64
2023/07/05 03:46:59;;;;;;;6.68;3.70;;;18.50;99.90;;;;;;5049218;28;20082;-67
2023/07/05 03:49:24;;;;;;;8.40;4.20;;;18.50;99.90;;;;;;5050923;28;20044;-66
2023/07/05 03:51:50;;;;;;;6.90;4.20;;;18.50;99.90;;;;;;5048906;28;20492;-67
2023/07/05 03:54:16;;;;;;;6.23;4.40;;;18.50;99.90;;;;;;5044175;28;20485;-66
2023/07/05 03:56:41;;;;;;;7.13;4.40;;;18.60;99.90;;;;;;5046326;28;20037;-65
2023/07/05 03:59:07;;;;;;;9.40;4.47;;;18.60;99.90;;;;;;5046032;28;20039;-64
2023/07/05 04:01:33;;;;;;;10.55;4.55;;;18.60;99.90;;;;;;5050189;28;20041;-62
2023/07/05 04:04:00;;;;;;;12.17;4.80;;;18.50;99.90;;;;;;5049694;28;20025;-64
2023/07/05 04:06:30;;;;;;;6.95;5.13;;;18.60;99.90;;;;;;5047245;28;20040;-67
2023/07/05 04:08:56;;;;;;;6.43;4.15;;;18.60;99.90;;;;;;5046949;28;20041;-67
2023/07/05 04:11:22;;;;;;;11.15;4.43;;;18.60;99.90;;;;;;5048301;28;20025;-67
2023/07/05 04:13:50;;;;;;;9.48;4.63;;;18.60;99.90;;;;;;5045364;28;20033;-67
2023/07/05 04:16:20;;;;;;;10.80;4.97;;;18.70;99.90;;;;;;5054584;28;20056;-67
2023/07/05 04:18:50;;;;;;;8.85;5.50;;;18.60;99.90;;;;;;5051821;28;20048;-63
2023/07/05 04:21:16;;;;;;;12.25;5.97;;;18.60;99.90;;;;;;5051534;28;20566;-66
2023/07/05 04:23:41;;;;;;;7.57;5.05;;;18.70;99.90;;;;;;5049561;28;20037;-64
2023/07/05 04:26:14;;;;;;;11.10;5.13;;;18.80;99.90;;;;;;5051585;28;20502;-63
2023/07/05 04:28:42;;;;;;;8.63;4.55;;;18.80;99.90;;;;;;5050307;28;20547;-65
2023/07/05 04:31:11;;;;;;;7.82;4.80;;;18.70;99.90;;;;;;5050162;28;20057;-63
2023/07/05 04:33:37;;;;;;;9.57;5.03;;;18.80;99.90;;;;;;5053021;28;20025;-67
2023/07/05 04:36:03;;;;;;;8.47;4.83;;;19.00;99.90;;;;;;5051162;28;20020;-65
2023/07/05 04:38:29;;;;;;;15.38;4.80;;;19.00;99.90;;;;;;5050098;28;20124;-66
2023/07/05 04:40:57;;;;;;;10.25;4.60;;;18.80;99.90;;;;;;5051787;28;20084;-66
2023/07/05 04:43:23;;;;;;;9.18;3.90;;;18.90;99.90;;;;;;5052946;28;20031;-66
2023/07/05 04:45:53;;;;;;;13.38;4.15;;;18.90;99.90;;;;;;5055231;28;20036;-66
2023/07/05 04:48:19;;;;;;;15.07;5.68;;;19.10;99.90;;;;;;5048400;28;20048;-66
2023/07/05 04:50:52;;;;;;;8.52;3.85;;;19.10;99.90;;;;;;5055695;28;20048;-63
2023/07/05 04:53:21;;;;;;;10.60;4.32;;;19.00;99.90;;;;;;5051092;28;20122;-63
2023/07/05 04:55:49;;;;;;;9.00;4.20;;;18.90;99.90;;;;;;5051708;28;20378;-63
2023/07/05 04:58:15;;;;;;;7.07;4.78;;;19.00;99.90;;;;;;5050252;28;20039;-64
2023/07/05 05:00:46;;;;;;;6.88;4.70;;;19.00;99.90;;;;;;5051734;28;20024;-63
2023/07/05 05:03:30;;;;;;;6.97;4.43;;;19.20;99.90;;;;;;5052379;28;20073;-63
2023/07/05 05:05:56;;;;;;;7.65;4.05;;;19.30;99.90;;;;;;5049353;28;20033;-66
2023/07/05 05:08:22;;;;;;;7.17;4.50;;;19.10;99.90;;;;;;5050466;28;20048;-66
2023/07/05 05:10:53;;;;;;;20.48;6.85;;;19.30;99.90;;;;;;5048236;28;20473;-66
2023/07/05 05:13:19;;;;;;;7.38;4.63;;;19.50;99.90;;;;;;5050741;28;20381;-65
2023/07/05 05:15:44;;;;;;;9.55;3.95;;;19.90;99.90;;;;;;5050228;28;20072;-66
2023/07/05 05:18:11;;;;;;;8.87;5.30;;;20.30;99.90;;;;;;5051426;28;20388;-66
2023/07/05 05:20:40;;;;;;;7.35;3.97;;;20.50;99.90;;;;;;5051394;28;20397;-67
2023/07/05 05:23:06;;;;;;;6.22;4.32;;;20.50;99.20;;;;;;5050212;28;20095;-66
2023/07/05 05:25:33;;;;;;;10.63;4.70;;;20.60;99.90;;;;;;5049830;28;20078;-64
2023/07/05 05:27:59;;;;;;;;;;;21.30;97.50;;;;;;5048416;28;20390;-67
2023/07/05 05:30:24;;;;;;;6.95;4.60;;;21.10;97.30;;;;;;5050772;28;19935;-65
2023/07/05 05:32:50;;;;;;;5.63;3.87;;;21.20;97.00;;;;;;5051734;28;20021;-68
2023/07/05 05:35:16;;;;;;;10.17;5.20;;;21.10;96.80;;;;;;5048447;28;20298;-65
2023/07/05 05:37:42;;;;;;;9.30;4.68;;;21.10;97.40;;;;;;5050513;28;20020;-66
2023/07/05 05:40:09;;;;;;;7.57;4.43;;;21.10;97.20;;;;;;5050226;28;20493;-68
2023/07/05 05:42:35;;;;;;;9.15;4.95;;;21.20;97.70;;;;;;5050042;28;20035;-68
2023/07/05 05:45:01;;;;;;;9.23;4.53;;;21.20;99.00;;;;;;5046494;28;20040;-66
2023/07/05 05:47:27;;;;;;;9.10;3.97;;;21.00;99.90;;;;;;5052149;28;20133;-67
2023/07/05 05:49:52;;;;;;;11.07;5.03;;;20.90;98.80;;;;;;5047783;28;20818;-67
2023/07/05 05:52:18;;;;;;;10.83;4.73;;;20.90;97.60;;;;;;5045871;28;20033;-67
2023/07/05 05:54:43;;;;;;;11.07;4.73;;;20.80;99.30;;;;;;5049314;28;20039;-67
2023/07/05 05:57:09;;;;;;;7.37;4.40;;;20.80;99.10;;;;;;5048013;28;20570;-67
2023/07/05 05:59:35;;;;;;;22.30;5.30;;;21.00;98.20;;;;;;5049159;28;20048;-66
2023/07/05 06:02:00;;;;;;;6.13;4.33;;;21.30;97.70;;;;;;5050593;28;20404;-66
2023/07/05 06:04:27;;;;;;;14.23;5.33;;;21.50;99.10;;;;;;5049234;28;20484;-67
2023/07/05 06:06:53;;;;;;;13.93;5.45;;;21.50;99.90;;;;;;5047699;28;20133;-65
2023/07/05 06:09:18;;;;;;;10.18;4.90;;;21.50;99.80;;;;;;5045123;28;20496;-68
2023/07/05 06:11:44;;;;;;;9.67;5.03;;;21.80;99.30;;;;;;5051338;28;20037;-68
2023/07/05 06:14:10;;;;;;;5.70;4.47;;;21.80;96.80;;;;;;5046943;28;20033;-66
2023/07/05 06:16:36;;;;;;;9.50;4.40;;;21.80;96.80;;;;;;5055252;28;20029;-67
2023/07/05 06:19:01;;;;;;;6.20;4.28;;;21.40;97.70;;;;;;5047608;28;20045;-68
2023/07/05 06:21:27;;;;;;;11.13;4.65;;;21.20;95.60;;;;;;5051063;28;20528;-68
2023/07/05 06:23:52;;;;;;;39.20;9.13;;;21.10;96.10;;;;;;5048564;28;20045;-67
2023/07/05 06:26:19;;;;;;;67.80;14.03;;;21.10;96.00;;;;;;5049374;28;20025;-67
2023/07/05 06:28:46;;;;;;;93.72;18.75;;;21.10;96.20;;;;;;5047489;28;20047;-66
2023/07/05 06:31:11;;;;;;;56.30;14.43;;;21.10;96.40;;;;;;5046109;28;20056;-69
2023/07/05 06:33:38;;;;;;;15.45;4.72;;;21.10;96.00;;;;;;5048040;28;20485;-67
2023/07/05 06:36:05;;;;;;;26.30;7.82;;;21.20;96.00;;;;;;5045835;28;20029;-66
2023/07/05 06:38:31;;;;;;;16.67;5.57;;;21.00;96.40;;;;;;5045772;28;20091;-69
2023/07/05 06:40:57;;;;;;;11.40;5.40;;;21.00;96.60;;;;;;5066362;28;20025;-68
2023/07/05 06:43:24;;;;;;;13.02;5.40;;;21.10;96.90;;;;;;5051895;28;20040;-69
2023/07/05 06:45:52;;;;;;;10.70;4.80;;;21.10;97.20;;;;;;5048362;28;20074;-67
2023/07/05 06:48:21;;;;;;;7.97;4.20;;;21.40;95.70;;;;;;5043875;28;20037;-68
2023/07/05 06:50:51;;;;;;;8.77;4.95;;;21.50;95.90;;;;;;5046803;28;20028;-67
2023/07/05 06:53:17;;;;;;;8.85;3.88;;;21.40;94.70;;;;;;5044866;28;20029;-66
2023/07/05 06:55:43;;;;;;;9.48;4.28;;;21.50;95.80;;;;;;5050886;28;20066;-68
2023/07/05 06:58:08;;;;;;;4.77;3.73;;;21.40;95.70;;;;;;5047387;28;20036;-66
2023/07/05 07:00:34;;;;;;;9.00;3.67;;;21.30;97.20;;;;;;5049898;28;20910;-66
2023/07/05 07:03:00;;;;;;;5.68;3.03;;;21.20;96.10;;;;;;5047335;28;20111;-69
2023/07/05 07:05:25;;;;;;;7.53;3.33;;;21.10;97.00;;;;;;5053051;28;20400;-68
2023/07/05 07:07:51;;;;;;;4.45;2.63;;;21.10;95.90;;;;;;5041070;28;20056;-63
2023/07/05 07:10:17;;;;;;;4.70;2.57;;;21.00;95.80;;;;;;5052492;28;20049;-66
2023/07/05 07:12:43;;;;;;;5.00;2.75;;;21.00;95.90;;;;;;5047011;28;20059;-66
2023/07/05 07:15:09;;;;;;;8.23;2.93;;;21.00;95.30;;;;;;5048368;28;20040;-65
2023/07/05 07:17:35;;;;;;;3.15;2.08;;;21.10;96.00;;;;;;5047127;28;20542;-63
2023/07/05 07:20:00;;;;;;;11.18;2.10;;;21.00;95.20;;;;;;5038958;28;20037;-62
2023/07/05 07:22:26;;;;;;;8.07;2.53;;;21.20;95.70;;;;;;5049394;28;20079;-65
2023/07/05 07:24:52;;;;;;;6.82;2.45;;;21.10;95.70;;;;;;5046244;28;20267;-68
2023/07/05 07:27:18;;;;;;;27.23;2.60;;;21.10;95.10;;;;;;5048079;28;20086;-65
2023/07/05 07:29:44;;;;;;;;;;;21.20;95.80;;;;;;5048740;28;20041;-65
2023/07/05 07:32:10;;;;;;;3.33;1.58;;;21.40;94.40;;;;;;5050491;28;19909;-64
2023/07/05 07:34:36;;;;;;;2.40;1.43;;;21.80;94.20;;;;;;5047396;28;20115;-67
2023/07/05 07:37:02;;;;;;;2.85;1.30;;;22.10;91.90;;;;;;5050255;28;20079;-67
2023/07/05 07:39:29;;;;;;;3.97;2.25;;;22.10;91.80;;;;;;5050653;28;20075;-65
2023/07/05 07:41:55;;;;;;;3.45;1.30;;;21.60;91.70;;;;;;5047288;28;20384;-69
2023/07/05 07:44:21;;;;;;;1.85;1.40;;;21.70;91.50;;;;;;5043187;28;20032;-68
2023/07/05 07:46:47;;;;;;;13.93;1.73;;;21.80;91.70;;;;;;5049122;28;20025;-68
2023/07/05 07:49:12;;;;;;;3.42;1.45;;;21.60;91.20;;;;;;5046573;28;20468;-69
2023/07/05 07:51:40;;;;;;;1.48;1.38;;;21.70;92.00;;;;;;5048239;28;20057;-69
2023/07/05 07:54:11;;;;;;;2.08;1.20;;;21.80;91.60;;;;;;5050759;28;20082;-68
2023/07/05 07:56:40;;;;;;;3.72;1.60;;;21.60;92.20;;;;;;5052274;28;20029;-69
2023/07/05 07:59:06;;;;;;;1.20;1.10;;;21.80;91.50;;;;;;5049874;28;20083;-68
2023/07/05 08:01:34;;;;;;;3.30;1.58;;;22.00;91.50;;;;;;5050445;28;20028;-69
2023/07/05 08:04:05;;;;;;;2.45;1.00;;;22.10;91.10;;;;;;5052924;28;20037;-67
2023/07/05 08:06:36;;;;;;;5.35;1.15;;;22.40;90.20;;;;;;5082280;28;20063;-68
2023/07/05 08:09:06;;;;;;;8.05;1.30;;;22.40;90.60;;;;;;5049792;28;20377;-69
2023/07/05 08:11:32;;;;;;;4.45;1.38;;;22.50;89.30;;;;;;5053661;28;20107;-69
2023/07/05 08:13:57;;;;;;;;;;;22.20;89.30;;;;;;5053620;28;20411;-67
2023/07/05 08:16:23;;;;;;;4.38;1.40;;;22.40;87.10;;;;;;5055665;28;19966;-68
2023/07/05 08:18:49;;;;;;;1.83;1.20;;;23.00;85.80;;;;;;5054301;28;20045;-69
2023/07/05 08:21:15;;;;;;;4.40;1.63;;;23.30;87.20;;;;;;5052594;28;20291;-70
2023/07/05 08:23:42;;;;;;;3.47;1.40;;;23.90;82.00;;;;;;5052064;28;20198;-70
2023/07/05 08:26:07;;;;;;;4.45;1.67;;;23.90;82.80;;;;;;5051059;28;20029;-69
2023/07/05 08:28:33;;;;;;;6.00;1.42;;;24.60;79.20;;;;;;5045416;28;20041;-69
2023/07/05 08:31:02;;;;;;;2.60;1.10;;;24.40;79.50;;;;;;5051322;28;20063;-70
2023/07/05 08:33:29;;;;;;;2.55;1.13;;;24.10;81.20;;;;;;5055444;28;20294;-69
2023/07/05 08:36:32;;;;;;;2.67;1.13;;;23.80;80.40;;;;;;5050996;28;20109;-70
2023/07/05 08:38:59;;;;;;;5.00;1.45;;;23.60;81.70;;;;;;5051390;28;20037;-67
2023/07/05 08:41:37;;;;;;;2.72;1.20;;;23.90;81.70;;;;;;5052193;28;20040;-69
2023/07/05 08:44:18;;;;;;;14.63;1.33;;;23.60;81.20;;;;;;5042164;28;20502;-68
2023/07/05 08:46:47;;;;;;;2.33;1.33;;;23.00;82.90;;;;;;5051951;28;20056;-69
2023/07/05 08:49:19;;;;;;;5.45;1.10;;;23.10;84.90;;;;;;5046494;28;20033;-70
2023/07/05 08:51:45;;;;;;;3.70;1.10;;;23.70;82.40;;;;;;5048516;28;20025;-70
2023/07/05 08:54:13;;;;;;;1.77;1.05;;;24.10;80.50;;;;;;5050965;28;20021;-70
2023/07/05 08:56:44;;;;;;;2.95;1.30;;;23.70;81.30;;;;;;5051579;28;20033;-70
2023/07/05 08:59:29;;;;;;;5.63;1.15;;;23.60;81.50;;;;;;5050705;28;20021;-70
2023/07/05 09:01:56;;;;;;;4.00;1.10;;;22.80;84.30;;;;;;5049192;28;20062;-68
2023/07/05 09:04:28;;;;;;;6.18;1.50;;;22.50;84.50;;;;;;5051480;28;20051;-69
2023/07/05 09:07:31;;;;;;;3.25;1.10;;;22.20;85.60;;;;;;5049405;28;20036;-67
2023/07/05 09:09:56;;;;;;;1.70;1.10;;;22.70;86.60;;;;;;5049912;28;20090;-67
2023/07/05 09:12:35;;;;;;;3.53;1.10;;;22.80;87.10;;;;;;5067904;28;20140;-67
2023/07/05 09:15:23;;;;;;;4.53;1.17;;;22.20;89.80;;;;;;5051764;28;20021;-66
2023/07/05 09:17:53;;;;;;;3.05;1.15;;;21.70;90.30;;;;;;5048700;28;20025;-65
2023/07/05 09:20:37;;;;;;;2.78;1.60;;;21.90;91.70;;;;;;5049811;28;20032;-64
2023/07/05 09:23:09;;;;;;;20.55;2.90;;;21.80;92.40;;;;;;5050541;28;20571;-64
2023/07/05 09:25:39;;;;;;;10.23;1.98;;;21.30;92.60;;;;;;5049342;28;21251;-64
2023/07/05 09:28:31;;;;;;;2.25;1.35;;;21.70;93.00;;;;;;5049702;28;20412;-65
2023/07/05 09:30:59;;;;;;;10.90;2.00;;;22.20;91.10;;;;;;5050176;28;20028;-65
2023/07/05 09:33:38;;;;;;;4.80;1.63;;;22.20;90.20;;;;;;5048717;28;20470;-66
2023/07/05 09:36:15;;;;;;;5.10;1.60;;;21.90;90.30;;;;;;5059729;28;20033;-67
2023/07/05 09:38:46;;;;;;;4.63;1.90;;;22.20;91.40;;;;;;5049065;28;20107;-66
2023/07/05 09:41:34;;;;;;;8.38;1.42;;;21.90;92.50;;;;;;5044478;28;20029;-66
2023/07/05 09:44:00;;;;;;;2.45;1.23;;;22.30;92.10;;;;;;5079728;28;20123;-64
2023/07/05 09:46:32;;;;;;;5.82;1.35;;;22.60;91.50;;;;;;5046431;28;20103;-67
2023/07/05 09:48:59;;;;;;;4.07;1.10;;;22.60;89.20;;;;;;5049338;28;20230;-67
2023/07/05 09:51:26;;;;;;;2.63;1.23;;;22.40;90.10;;;;;;5052501;28;20064;-68
2023/07/05 09:54:04;;;;;;;10.18;3.03;;;22.20;90.50;;;;;;5054296;28;20039;-67
2023/07/05 09:56:30;;;;;;;5.30;1.50;;;21.80;90.90;;;;;;5044868;28;20132;-65
2023/07/05 09:59:11;;;;;;;;;;;22.10;91.30;;;;;;5048879;28;20039;-66
2023/07/05 10:01:41;;;;;;;3.63;1.58;;;22.30;91.50;;;;;;5046680;28;19974;-67
2023/07/05 10:04:07;;;;;;;3.63;2.33;;;28.70;73.90;;;;;;5045641;28;20140;-65
2023/07/05 10:06:38;;;;;;;3.10;1.30;;;30.90;64.80;;;;;;5056572;28;20036;-68
2023/07/05 10:09:22;;;;;;;4.45;1.20;;;32.30;59.80;;;;;;5033664;28;20083;-66
2023/07/05 10:11:54;;;;;;;6.00;4.18;;;31.00;60.80;;;;;;5047159;28;20052;-67
2023/07/05 10:14:29;;;;;;;2.60;1.42;;;33.30;57.30;;;;;;5080271;28;20028;-68
2023/07/05 10:17:02;;;;;;;1.53;1.10;;;33.40;55.00;;;;;;5049397;28;20060;-66
2023/07/05 10:19:51;;;;;;;1.95;1.38;;;29.20;63.10;;;;;;5049857;28;20112;-67
2023/07/05 10:22:31;;;;;;;2.25;1.30;;;26.20;71.20;;;;;;5042969;28;20063;-68
2023/07/05 10:25:02;;;;;;;4.63;1.30;;;27.10;71.60;;;;;;5078887;28;20539;-68
2023/07/05 10:27:32;;;;;;;2.25;1.00;;;30.00;65.20;;;;;;5043216;28;20025;-67
2023/07/05 10:30:04;;;;;;;1.13;0.93;;;27.20;69.00;;;;;;5050186;28;20080;-66
2023/07/05 10:32:31;;;;;;;1.40;0.90;;;26.20;73.40;;;;;;5060908;28;20029;-68
2023/07/05 10:34:57;;;;;;;3.42;1.15;;;25.20;72.50;;;;;;5053250;28;21491;-63
2023/07/05 10:37:30;;;;;;;;;;;25.40;74.10;;;;;;5055235;28;20024;-68
2023/07/05 10:39:57;;;;;;;3.40;1.35;;;25.20;73.60;;;;;;5050219;28;19947;-65
2023/07/05 10:42:25;;;;;;;2.22;0.98;;;25.30;78.50;;;;;;5057131;28;20787;-67
2023/07/05 10:44:51;;;;;;;1.15;1.02;;;25.00;74.40;;;;;;5050452;28;20511;-67
2023/07/05 10:47:17;;;;;;;;;;;25.60;75.60;;;;;;5051814;28;20087;-68
2023/07/05 10:49:47;;;;;;;3.10;1.88;;;25.20;75.30;;;;;;5048363;28;19917;-67
2023/07/05 10:52:16;;;;;;;3.70;1.25;;;25.80;77.40;;;;;;5045371;28;20023;-67
2023/07/05 10:54:56;;;;;;;4.30;1.00;;;25.70;74.70;;;;;;5050043;28;20489;-67
2023/07/05 10:57:32;;;;;;;2.13;1.02;;;26.00;76.60;;;;;;5048196;28;20741;-68
2023/07/05 11:00:11;;;;;;;2.90;1.63;;;26.40;77.10;;;;;;5051881;28;20106;-65
2023/07/05 11:02:55;;;;;;;3.80;1.35;;;25.90;73.30;;;;;;5055236;28;20047;-68
2023/07/05 11:05:29;;;;;;;1.92;1.30;;;26.70;74.10;;;;;;5057977;28;20039;-68
2023/07/05 11:07:59;;;;;;;1.58;1.17;;;26.60;79.20;;;;;;5051687;28;20037;-68
2023/07/05 11:10:29;;;;;;;2.03;1.00;;;25.40;76.40;;;;;;5047099;28;20861;-68
2023/07/05 11:12:58;;;;;;;5.00;1.20;;;24.80;75.20;;;;;;5052450;28;20041;-66
2023/07/05 11:15:24;;;;;;;10.25;1.77;;;24.60;79.40;;;;;;5046372;28;20025;-67
2023/07/05 11:17:50;;;;;;;3.22;1.20;;;24.30;77.70;;;;;;5048882;28;20044;-68
2023/07/05 11:20:41;;;;;;;3.50;1.45;;;24.90;79.40;;;;;;5049137;28;20029;-68
2023/07/05 11:23:11;;;;;;;4.68;1.73;;;24.90;77.10;;;;;;5044879;28;20109;-67
2023/07/05 11:25:58;;;;;;;1.60;1.42;;;24.80;77.90;;;;;;5084265;28;20039;-67
2023/07/05 11:28:41;;;;;;;2.42;1.63;;;25.60;78.20;;;;;;5046469;28;20102;-66
2023/07/05 11:31:08;;;;;;;1.77;1.50;;;25.60;75.30;;;;;;5060045;28;20064;-65
2023/07/05 11:33:35;;;;;;;2.22;1.23;;;25.20;74.50;;;;;;5051853;28;20052;-65
2023/07/05 11:36:08;;;;;;;1.60;1.38;;;26.10;73.60;;;;;;5049835;28;20463;-66
2023/07/05 11:38:40;;;;;;;3.67;1.77;;;25.80;73.90;;;;;;5051880;28;20024;-64
2023/07/05 11:41:30;;;;;;;1.67;1.10;;;26.90;74.90;;;;;;5056149;28;20040;-64
2023/07/05 11:44:00;;;;;;;3.10;1.67;;;26.90;74.90;;;;;;5040830;28;20117;-65
2023/07/05 11:46:43;;;;;;;1.95;1.30;;;26.70;71.20;;;;;;5062809;28;20027;-65
2023/07/05 11:49:20;;;;;;;1.77;1.50;;;26.30;72.60;;;;;;5046453;28;20095;-69
2023/07/05 11:51:50;;;;;;;3.08;1.65;;;26.30;70.80;;;;;;5052891;28;20056;-67
2023/07/05 11:54:19;;;;;;;5.53;1.65;;;26.40;73.40;;;;;;5048333;28;20086;-69
2023/07/05 11:56:46;;;;;;;5.35;1.73;;;26.20;74.60;;;;;;5049304;28;20438;-64
2023/07/05 11:59:16;;;;;;;2.78;1.42;;;26.10;74.20;;;;;;5066728;28;20028;-68
2023/07/05 12:01:42;;;;;;;4.72;1.30;;;25.90;72.30;;;;;;5050490;28;20137;-67
2023/07/05 12:04:12;;;;;;;;;;;26.20;72.70;;;;;;5045553;28;20432;-67
2023/07/05 12:06:40;;;;;;;5.35;1.40;;;26.10;73.70;;;;;;5053996;28;19909;-67
2023/07/05 12:09:17;;;;;;;3.42;1.27;;;26.40;77.50;;;;;;5054384;28;20028;-68
2023/07/05 12:11:42;;;;;;;;;;;26.40;77.90;;;;;;5057784;28;20029;-67
2023/07/05 12:14:14;;;;;;;1.65;1.20;;;26.20;75.30;;;;;;5050614;28;19915;-65
2023/07/05 12:16:41;;;;;;;1.70;1.35;;;26.50;75.10;;;;;;5051615;28;20040;-65
2023/07/05 12:19:15;;;;;;;1.95;1.38;;;26.50;73.50;;;;;;5049114;28;20033;-68
2023/07/05 12:21:44;;;;;;;3.88;1.58;;;26.90;74.40;;;;;;5048693;28;20775;-66
2023/07/05 12:24:11;;;;;;;3.22;1.48;;;25.90;74.80;;;;;;5052228;28;20033;-66
2023/07/05 12:26:39;;;;;;;1.73;1.10;;;26.40;74.20;;;;;;5051612;28;20821;-67
2023/07/05 12:29:20;;;;;;;1.58;1.48;;;25.80;73.10;;;;;;5049294;28;20098;-67
2023/07/05 12:31:45;;;;;;;4.50;1.38;;;25.40;76.30;;;;;;5042795;28;20418;-67
2023/07/05 12:34:18;;;;;;;2.17;1.52;;;24.60;74.20;;;;;;5053409;28;20110;-65
2023/07/05 12:36:44;;;;;;;5.55;1.50;;;25.30;79.20;;;;;;5049417;28;20048;-65
2023/07/05 12:39:15;;;;;;;2.20;1.40;;;25.90;74.00;;;;;;5052823;28;20025;-67
2023/07/05 12:41:40;;;;;;;1.15;1.05;;;25.70;74.60;;;;;;5049996;28;20033;-67
2023/07/05 12:44:16;;;;;;;2.10;1.20;;;26.30;80.60;;;;;;5050488;28;20078;-66
2023/07/05 12:46:42;;;;;;;3.97;1.50;;;26.80;72.40;;;;;;5048745;28;20127;-67
2023/07/05 12:49:30;;;;;;;2.92;1.75;;;26.70;75.10;;;;;;5053479;28;20048;-67
2023/07/05 12:51:58;;;;;;;2.30;1.67;;;25.80;73.70;;;;;;5048937;28;20029;-67
2023/07/05 12:54:24;;;;;;;2.80;1.85;;;26.20;76.60;;;;;;5053509;28;20453;-67
2023/07/05 12:56:51;;;;;;;;;;;26.00;71.90;;;;;;5054805;28;20029;-67
2023/07/05 12:59:36;;;;;;;1.93;1.40;;;26.40;70.60;;;;;;5052723;28;19995;-67
2023/07/05 13:02:06;;;;;;;2.15;1.27;;;26.10;69.60;;;;;;5051947;28;20033;-66